ANA154 RJGG-RJFU
Flight info
| Callsign | ANA154 |
|---|---|
| Flight time | 1h 24m |
| Altitude | 36000 |
| Route | HIKNE Y207 ARASI Y20 KAMMY Y204 OHGIE |
| Aircraft | A333/H-V/N |
Departure
| Time | 2026-05-05 22:09 |
|---|---|
| Airport | Chubu Centrair International Airport (RJGG) |
Arrival
| Time | 2026-05-05 23:33 |
|---|---|
| Airport | Nagasaki Airport (RJFU) |
| Time | Latitude | Longitude | Altitude | Speed | Heading |
|---|---|---|---|---|---|
| 2026-05-05 21:51 | 34.86358 | 136.81209 | 13 ft | 0 kts | 78° |
| 2026-05-05 21:59 | 34.86356 | 136.81198 | 13 ft | 2 kts | 78° |
| 2026-05-05 21:59 | 34.86353 | 136.81183 | 13 ft | 2 kts | 78° |
| 2026-05-05 22:00 | 34.86351 | 136.81166 | 13 ft | 2 kts | 78° |
| 2026-05-05 22:00 | 34.86348 | 136.81151 | 13 ft | 2 kts | 78° |
| 2026-05-05 22:00 | 34.86345 | 136.81136 | 13 ft | 2 kts | 78° |
| 2026-05-05 22:00 | 34.86342 | 136.81119 | 13 ft | 2 kts | 78° |
| 2026-05-05 22:01 | 34.86339 | 136.81102 | 13 ft | 2 kts | 78° |
| 2026-05-05 22:01 | 34.86337 | 136.81087 | 13 ft | 2 kts | 78° |
| 2026-05-05 22:01 | 34.86335 | 136.81076 | 13 ft | 1 kts | 78° |
| 2026-05-05 22:01 | 34.86331 | 136.81059 | 13 ft | 2 kts | 60° |
| 2026-05-05 22:02 | 34.86322 | 136.81044 | 13 ft | 2 kts | 41° |
| 2026-05-05 22:02 | 34.86309 | 136.81033 | 13 ft | 2 kts | 24° |
| 2026-05-05 22:02 | 34.86295 | 136.81029 | 13 ft | 2 kts | 5° |
| 2026-05-05 22:02 | 34.86280 | 136.81029 | 13 ft | 2 kts | 348° |
| 2026-05-05 22:03 | 34.86266 | 136.81033 | 13 ft | 2 kts | 330° |
| 2026-05-05 22:03 | 34.86254 | 136.81044 | 13 ft | 2 kts | 313° |
| 2026-05-05 22:03 | 34.86249 | 136.81052 | 13 ft | 1 kts | 304° |
| 2026-05-05 22:03 | 34.86248 | 136.81053 | 13 ft | 0 kts | 305° |
| 2026-05-05 22:05 | 34.86253 | 136.81045 | 13 ft | 7 kts | 304° |
| 2026-05-05 22:06 | 34.86296 | 136.80904 | 13 ft | 31 kts | 283° |
| 2026-05-05 22:06 | 34.86430 | 136.80722 | 13 ft | 33 kts | 320° |
| 2026-05-05 22:06 | 34.86609 | 136.80598 | 13 ft | 32 kts | 347° |
| 2026-05-05 22:06 | 34.86810 | 136.80548 | 13 ft | 32 kts | 349° |
| 2026-05-05 22:07 | 34.87011 | 136.80504 | 13 ft | 31 kts | 349° |
| 2026-05-05 22:07 | 34.87202 | 136.80464 | 13 ft | 30 kts | 351° |
| 2026-05-05 22:07 | 34.87367 | 136.80420 | 13 ft | 21 kts | 321° |
| 2026-05-05 22:07 | 34.87391 | 136.80272 | 13 ft | 21 kts | 264° |
| 2026-05-05 22:08 | 34.87320 | 136.80190 | 13 ft | 13 kts | 175° |
| 2026-05-05 22:08 | 34.87315 | 136.80190 | 13 ft | 0 kts | 174° |
| 2026-05-05 22:08 | 34.87311 | 136.80191 | 13 ft | 5 kts | 174° |
| 2026-05-05 22:08 | 34.87042 | 136.80252 | 13 ft | 85 kts | 168° |
| 2026-05-05 22:09 | 34.86261 | 136.80441 | 35 ft | 158 kts | 166° |
| 2026-05-05 22:09 | 34.85160 | 136.80695 | 440 ft | 189 kts | 168° |
| 2026-05-05 22:09 | 34.83923 | 136.80882 | 1383 ft | 201 kts | 178° |
| 2026-05-05 22:09 | 34.82779 | 136.80502 | 2291 ft | 197 kts | 209° |
| 2026-05-05 22:10 | 34.81927 | 136.79356 | 2838 ft | 214 kts | 242° |
| 2026-05-05 22:10 | 34.81678 | 136.77750 | 3337 ft | 232 kts | 273° |
| 2026-05-05 22:10 | 34.82120 | 136.76083 | 3826 ft | 249 kts | 301° |
| 2026-05-05 22:10 | 34.83181 | 136.74767 | 4348 ft | 263 kts | 327° |
| 2026-05-05 22:11 | 34.84718 | 136.74069 | 4871 ft | 275 kts | 353° |
| 2026-05-05 22:11 | 34.86381 | 136.74223 | 5529 ft | 280 kts | 18° |
| 2026-05-05 22:11 | 34.87849 | 136.75171 | 6206 ft | 282 kts | 42° |
| 2026-05-05 22:11 | 34.88912 | 136.76770 | 6951 ft | 282 kts | 62° |
| 2026-05-05 22:12 | 34.89989 | 136.78468 | 7654 ft | 289 kts | 43° |
| 2026-05-05 22:12 | 34.91540 | 136.79553 | 8360 ft | 295 kts | 18° |
| 2026-05-05 22:12 | 34.93330 | 136.79816 | 9083 ft | 297 kts | 354° |
| 2026-05-05 22:12 | 34.95128 | 136.79185 | 9812 ft | 298 kts | 330° |
| 2026-05-05 22:13 | 34.96665 | 136.77596 | 10575 ft | 298 kts | 305° |
| 2026-05-05 22:13 | 34.97478 | 136.75656 | 11015 ft | 306 kts | 284° |
| 2026-05-05 22:13 | 34.97864 | 136.73344 | 11405 ft | 320 kts | 283° |
| 2026-05-05 22:13 | 34.98646 | 136.71170 | 11739 ft | 338 kts | 298° |
| 2026-05-05 22:14 | 34.99698 | 136.68986 | 12091 ft | 352 kts | 297° |
| 2026-05-05 22:14 | 35.00800 | 136.66637 | 12417 ft | 367 kts | 298° |
| 2026-05-05 22:14 | 35.01992 | 136.64117 | 12905 ft | 376 kts | 298° |
| 2026-05-05 22:14 | 35.03171 | 136.61620 | 13507 ft | 381 kts | 298° |
| 2026-05-05 22:15 | 35.03925 | 136.60020 | 13946 ft | 381 kts | 298° |
| 2026-05-05 22:15 | 35.05124 | 136.57480 | 14624 ft | 383 kts | 298° |
| 2026-05-05 22:15 | 35.06375 | 136.54823 | 15311 ft | 385 kts | 297° |
| 2026-05-05 22:15 | 35.07641 | 136.52136 | 15995 ft | 387 kts | 297° |
| 2026-05-05 22:16 | 35.08890 | 136.49486 | 16553 ft | 391 kts | 297° |
| 2026-05-05 22:16 | 35.10129 | 136.46826 | 17084 ft | 395 kts | 297° |
| 2026-05-05 22:16 | 35.11395 | 136.44147 | 17635 ft | 399 kts | 297° |
| 2026-05-05 22:16 | 35.12678 | 136.41414 | 18222 ft | 401 kts | 296° |
| 2026-05-05 22:17 | 35.13981 | 136.38638 | 18868 ft | 400 kts | 296° |
| 2026-05-05 22:17 | 35.15244 | 136.35942 | 19518 ft | 399 kts | 295° |
| 2026-05-05 22:17 | 35.16529 | 136.33203 | 20162 ft | 397 kts | 295° |
| 2026-05-05 22:17 | 35.17794 | 136.30502 | 20773 ft | 395 kts | 294° |
| 2026-05-05 22:18 | 35.19068 | 136.27780 | 21267 ft | 395 kts | 294° |
| 2026-05-05 22:18 | 35.20347 | 136.25037 | 21713 ft | 397 kts | 294° |
| 2026-05-05 22:18 | 35.21606 | 136.22340 | 22200 ft | 397 kts | 293° |
| 2026-05-05 22:18 | 35.22781 | 136.19655 | 22578 ft | 393 kts | 287° |
| 2026-05-05 22:19 | 35.23374 | 136.16798 | 23040 ft | 381 kts | 271° |
| 2026-05-05 22:19 | 35.23254 | 136.13966 | 23520 ft | 373 kts | 257° |
| 2026-05-05 22:19 | 35.22811 | 136.11162 | 23867 ft | 375 kts | 257° |
| 2026-05-05 22:19 | 35.22404 | 136.08366 | 24219 ft | 377 kts | 257° |
| 2026-05-05 22:20 | 35.21981 | 136.05473 | 24612 ft | 378 kts | 257° |
| 2026-05-05 22:20 | 35.21559 | 136.02589 | 25126 ft | 376 kts | 257° |
| 2026-05-05 22:20 | 35.21120 | 135.99599 | 25497 ft | 378 kts | 258° |
| 2026-05-05 22:20 | 35.20676 | 135.96562 | 25909 ft | 378 kts | 257° |
| 2026-05-05 22:21 | 35.20222 | 135.93489 | 26309 ft | 379 kts | 257° |
| 2026-05-05 22:21 | 35.19764 | 135.90392 | 26755 ft | 378 kts | 257° |
| 2026-05-05 22:21 | 35.19309 | 135.87311 | 27240 ft | 376 kts | 257° |
| 2026-05-05 22:21 | 35.18865 | 135.84294 | 27737 ft | 374 kts | 257° |
| 2026-05-05 22:22 | 35.18434 | 135.81358 | 28150 ft | 372 kts | 256° |
| 2026-05-05 22:22 | 35.17987 | 135.78520 | 28619 ft | 369 kts | 256° |
| 2026-05-05 22:22 | 35.17518 | 135.75749 | 28954 ft | 369 kts | 256° |
| 2026-05-05 22:22 | 35.17051 | 135.72943 | 29300 ft | 368 kts | 255° |
| 2026-05-05 22:23 | 35.16583 | 135.70166 | 29611 ft | 368 kts | 255° |
| 2026-05-05 22:23 | 35.16106 | 135.67339 | 29971 ft | 367 kts | 256° |
| 2026-05-05 22:23 | 35.15632 | 135.64508 | 30374 ft | 365 kts | 255° |
| 2026-05-05 22:23 | 35.15173 | 135.61800 | 30715 ft | 364 kts | 256° |
| 2026-05-05 22:24 | 35.14692 | 135.58951 | 31121 ft | 362 kts | 254° |
| 2026-05-05 22:24 | 35.14210 | 135.56102 | 31474 ft | 361 kts | 255° |
| 2026-05-05 22:24 | 35.13736 | 135.53287 | 31828 ft | 360 kts | 255° |
| 2026-05-05 22:24 | 35.13256 | 135.50476 | 32282 ft | 356 kts | 254° |
| 2026-05-05 22:25 | 35.12787 | 135.47728 | 32677 ft | 354 kts | 255° |
| 2026-05-05 22:25 | 35.12340 | 135.45075 | 33102 ft | 351 kts | 255° |
| 2026-05-05 22:25 | 35.11888 | 135.42433 | 33446 ft | 349 kts | 255° |
| 2026-05-05 22:25 | 35.11425 | 135.39712 | 33770 ft | 349 kts | 254° |
| 2026-05-05 22:26 | 35.10959 | 135.37013 | 34121 ft | 348 kts | 255° |
| 2026-05-05 22:26 | 35.10509 | 135.34360 | 34427 ft | 348 kts | 255° |
| 2026-05-05 22:26 | 35.10061 | 135.31766 | 34776 ft | 348 kts | 254° |
| 2026-05-05 22:26 | 35.09625 | 135.29198 | 35139 ft | 347 kts | 255° |
| 2026-05-05 22:27 | 35.09163 | 135.26538 | 35503 ft | 347 kts | 255° |
| 2026-05-05 22:27 | 35.08708 | 135.23866 | 35840 ft | 346 kts | 254° |
| 2026-05-05 22:27 | 35.08252 | 135.21240 | 36157 ft | 346 kts | 255° |
| 2026-05-05 22:27 | 35.07801 | 135.18622 | 36258 ft | 350 kts | 255° |
| 2026-05-05 22:28 | 35.07330 | 135.15892 | 36203 ft | 350 kts | 255° |
| 2026-05-05 22:28 | 35.06440 | 135.10751 | 36201 ft | 346 kts | 255° |
| 2026-05-05 22:29 | 35.05524 | 135.05467 | 36205 ft | 346 kts | 255° |
| 2026-05-05 22:29 | 35.04613 | 135.00250 | 36207 ft | 344 kts | 255° |
| 2026-05-05 22:30 | 35.03679 | 134.94905 | 36194 ft | 347 kts | 255° |
| 2026-05-05 22:30 | 35.02749 | 134.89578 | 36191 ft | 345 kts | 255° |
| 2026-05-05 22:31 | 35.01822 | 134.84305 | 36178 ft | 345 kts | 255° |
| 2026-05-05 22:31 | 35.00889 | 134.78981 | 36180 ft | 346 kts | 255° |
| 2026-05-05 22:32 | 34.99945 | 134.73650 | 36181 ft | 347 kts | 254° |
| 2026-05-05 22:32 | 34.98990 | 134.68365 | 36174 ft | 346 kts | 253° |
| 2026-05-05 22:33 | 34.97685 | 134.63351 | 36173 ft | 346 kts | 250° |
| 2026-05-05 22:33 | 34.96383 | 134.58359 | 36173 ft | 346 kts | 250° |
| 2026-05-05 22:34 | 34.95090 | 134.53377 | 36168 ft | 347 kts | 251° |
| 2026-05-05 22:34 | 34.93824 | 134.48498 | 36163 ft | 346 kts | 251° |
| 2026-05-05 22:35 | 34.92535 | 134.43562 | 36168 ft | 348 kts | 251° |
| 2026-05-05 22:35 | 34.91258 | 134.38669 | 36165 ft | 348 kts | 251° |
| 2026-05-05 22:36 | 34.89976 | 134.33763 | 36177 ft | 348 kts | 250° |
| 2026-05-05 22:36 | 34.88691 | 134.28860 | 36202 ft | 350 kts | 250° |
| 2026-05-05 22:37 | 34.87404 | 134.23943 | 36209 ft | 349 kts | 251° |
| 2026-05-05 22:37 | 34.86111 | 134.19026 | 36207 ft | 348 kts | 251° |
| 2026-05-05 22:38 | 34.84827 | 134.14157 | 36213 ft | 349 kts | 250° |
| 2026-05-05 22:38 | 34.83521 | 134.09215 | 36218 ft | 349 kts | 250° |
| 2026-05-05 22:39 | 34.82221 | 134.04297 | 36214 ft | 349 kts | 250° |
| 2026-05-05 22:39 | 34.80922 | 133.99373 | 36211 ft | 349 kts | 249° |
| 2026-05-05 22:40 | 34.79632 | 133.94511 | 36200 ft | 349 kts | 250° |
| 2026-05-05 22:40 | 34.78317 | 133.89557 | 36206 ft | 350 kts | 249° |
| 2026-05-05 22:41 | 34.76994 | 133.84608 | 36196 ft | 350 kts | 250° |
| 2026-05-05 22:41 | 34.75678 | 133.79672 | 36201 ft | 350 kts | 250° |
| 2026-05-05 22:42 | 34.74360 | 133.74731 | 36203 ft | 350 kts | 250° |
| 2026-05-05 22:42 | 34.73043 | 133.69812 | 36193 ft | 352 kts | 251° |
| 2026-05-05 22:43 | 34.71706 | 133.64831 | 36195 ft | 350 kts | 250° |
| 2026-05-05 22:43 | 34.70370 | 133.59851 | 36195 ft | 351 kts | 250° |
| 2026-05-05 22:44 | 34.69027 | 133.54854 | 36185 ft | 352 kts | 250° |
| 2026-05-05 22:44 | 34.67662 | 133.49808 | 36182 ft | 352 kts | 249° |
| 2026-05-05 22:45 | 34.66317 | 133.44821 | 36179 ft | 351 kts | 249° |
| 2026-05-05 22:45 | 34.64953 | 133.39793 | 36172 ft | 352 kts | 250° |
| 2026-05-05 22:46 | 34.63531 | 133.34543 | 36178 ft | 352 kts | 250° |
| 2026-05-05 22:46 | 34.62074 | 133.29173 | 36190 ft | 353 kts | 249° |
| 2026-05-05 22:47 | 34.60611 | 133.23798 | 36186 ft | 353 kts | 249° |
| 2026-05-05 22:47 | 34.59126 | 133.18358 | 36178 ft | 356 kts | 249° |
| 2026-05-05 22:48 | 34.57648 | 133.12952 | 36193 ft | 354 kts | 249° |
| 2026-05-05 22:48 | 34.56174 | 133.07577 | 36189 ft | 352 kts | 248° |
| 2026-05-05 22:49 | 34.54734 | 133.02318 | 36196 ft | 354 kts | 249° |
| 2026-05-05 22:49 | 34.53301 | 132.97102 | 36184 ft | 356 kts | 248° |
| 2026-05-05 22:50 | 34.51798 | 132.91653 | 36183 ft | 354 kts | 249° |
| 2026-05-05 22:50 | 34.50306 | 132.86237 | 36181 ft | 356 kts | 249° |
| 2026-05-05 22:51 | 34.48788 | 132.80754 | 36177 ft | 356 kts | 248° |
| 2026-05-05 22:51 | 34.47310 | 132.75436 | 36168 ft | 357 kts | 249° |
| 2026-05-05 22:52 | 34.45789 | 132.69939 | 36172 ft | 354 kts | 249° |
| 2026-05-05 22:52 | 34.44340 | 132.64737 | 36167 ft | 354 kts | 249° |
| 2026-05-05 22:53 | 34.42930 | 132.59670 | 36156 ft | 355 kts | 249° |
| 2026-05-05 22:53 | 34.41530 | 132.54643 | 36156 ft | 356 kts | 249° |
| 2026-05-05 22:54 | 34.40035 | 132.49292 | 36153 ft | 356 kts | 248° |
| 2026-05-05 22:54 | 34.38568 | 132.44078 | 36153 ft | 355 kts | 249° |
| 2026-05-05 22:55 | 34.37149 | 132.39003 | 36158 ft | 355 kts | 249° |
| 2026-05-05 22:55 | 34.35718 | 132.33925 | 36158 ft | 355 kts | 248° |
| 2026-05-05 22:56 | 34.34303 | 132.28883 | 36173 ft | 356 kts | 248° |
| 2026-05-05 22:56 | 34.32854 | 132.23756 | 36171 ft | 357 kts | 248° |
| 2026-05-05 22:57 | 34.31421 | 132.18683 | 36176 ft | 356 kts | 248° |
| 2026-05-05 22:57 | 34.29975 | 132.13574 | 36168 ft | 354 kts | 248° |
| 2026-05-05 22:58 | 34.28542 | 132.08522 | 36168 ft | 355 kts | 249° |
| 2026-05-05 22:58 | 34.27101 | 132.03453 | 36170 ft | 355 kts | 248° |
| 2026-05-05 22:59 | 34.25664 | 131.98401 | 36169 ft | 355 kts | 247° |
| 2026-05-05 22:59 | 34.24220 | 131.93349 | 36167 ft | 356 kts | 248° |
| 2026-05-05 23:00 | 34.22053 | 131.85747 | 36153 ft | 357 kts | 248° |
| 2026-05-05 23:00 | 34.20600 | 131.80688 | 36147 ft | 356 kts | 248° |
| 2026-05-05 23:01 | 34.19153 | 131.75638 | 36151 ft | 355 kts | 249° |
| 2026-05-05 23:01 | 34.17699 | 131.70581 | 36160 ft | 359 kts | 248° |
| 2026-05-05 23:02 | 34.16250 | 131.65552 | 36154 ft | 357 kts | 248° |
| 2026-05-05 23:02 | 34.14742 | 131.60336 | 36146 ft | 358 kts | 248° |
| 2026-05-05 23:03 | 34.13148 | 131.54808 | 36147 ft | 360 kts | 248° |
| 2026-05-05 23:03 | 34.11533 | 131.49223 | 36147 ft | 358 kts | 248° |
| 2026-05-05 23:04 | 34.09926 | 131.43694 | 36141 ft | 360 kts | 248° |
| 2026-05-05 23:04 | 34.09169 | 131.41098 | 36021 ft | 363 kts | 247° |
| 2026-05-05 23:04 | 34.08399 | 131.38434 | 35752 ft | 362 kts | 248° |
| 2026-05-05 23:05 | 34.07611 | 131.35739 | 35501 ft | 356 kts | 248° |
| 2026-05-05 23:05 | 34.06842 | 131.33089 | 35260 ft | 352 kts | 247° |
| 2026-05-05 23:05 | 34.05977 | 131.30582 | 35032 ft | 350 kts | 242° |
| 2026-05-05 23:05 | 34.04929 | 131.28102 | 34817 ft | 353 kts | 242° |
| 2026-05-05 23:06 | 34.03895 | 131.25588 | 34595 ft | 350 kts | 241° |
| 2026-05-05 23:06 | 34.02876 | 131.23123 | 34363 ft | 351 kts | 240° |
| 2026-05-05 23:06 | 34.01846 | 131.20633 | 33838 ft | 354 kts | 240° |
| 2026-05-05 23:06 | 34.00844 | 131.18231 | 33186 ft | 354 kts | 240° |
| 2026-05-05 23:07 | 33.99819 | 131.15758 | 32544 ft | 353 kts | 241° |
| 2026-05-05 23:07 | 33.98816 | 131.13335 | 31892 ft | 353 kts | 242° |
| 2026-05-05 23:07 | 33.97798 | 131.10881 | 31282 ft | 352 kts | 242° |
| 2026-05-05 23:07 | 33.96771 | 131.08415 | 30716 ft | 350 kts | 241° |
| 2026-05-05 23:08 | 33.95766 | 131.06003 | 30199 ft | 347 kts | 242° |
| 2026-05-05 23:08 | 33.94759 | 131.03574 | 29700 ft | 343 kts | 240° |
| 2026-05-05 23:08 | 33.93773 | 131.01210 | 29240 ft | 339 kts | 242° |
| 2026-05-05 23:08 | 33.92782 | 130.98828 | 28754 ft | 337 kts | 241° |
| 2026-05-05 23:09 | 33.91797 | 130.96464 | 28262 ft | 335 kts | 241° |
| 2026-05-05 23:09 | 33.90799 | 130.94073 | 27765 ft | 334 kts | 242° |
| 2026-05-05 23:09 | 33.89814 | 130.91715 | 27276 ft | 333 kts | 242° |
| 2026-05-05 23:09 | 33.88850 | 130.89407 | 26853 ft | 332 kts | 242° |
| 2026-05-05 23:10 | 33.87886 | 130.87109 | 26435 ft | 331 kts | 243° |
| 2026-05-05 23:10 | 33.86933 | 130.84830 | 26029 ft | 335 kts | 242° |
| 2026-05-05 23:10 | 33.85949 | 130.82477 | 25617 ft | 342 kts | 242° |
| 2026-05-05 23:10 | 33.84935 | 130.80057 | 25203 ft | 345 kts | 243° |
| 2026-05-05 23:11 | 33.83935 | 130.77672 | 24768 ft | 348 kts | 243° |
| 2026-05-05 23:11 | 33.82910 | 130.75227 | 24315 ft | 349 kts | 243° |
| 2026-05-05 23:11 | 33.81880 | 130.72772 | 23832 ft | 352 kts | 243° |
| 2026-05-05 23:11 | 33.80857 | 130.70343 | 23341 ft | 354 kts | 244° |
| 2026-05-05 23:12 | 33.79800 | 130.67825 | 22826 ft | 357 kts | 243° |
| 2026-05-05 23:12 | 33.78759 | 130.65343 | 22326 ft | 356 kts | 243° |
| 2026-05-05 23:12 | 33.77718 | 130.62875 | 21820 ft | 355 kts | 244° |
| 2026-05-05 23:12 | 33.76700 | 130.60457 | 21351 ft | 353 kts | 243° |
| 2026-05-05 23:13 | 33.75701 | 130.58086 | 20913 ft | 350 kts | 243° |
| 2026-05-05 23:13 | 33.74696 | 130.55702 | 20459 ft | 348 kts | 243° |
| 2026-05-05 23:13 | 33.73687 | 130.53311 | 20021 ft | 345 kts | 243° |
| 2026-05-05 23:13 | 33.72695 | 130.50964 | 19592 ft | 342 kts | 243° |
| 2026-05-05 23:14 | 33.71699 | 130.48607 | 19173 ft | 340 kts | 243° |
| 2026-05-05 23:14 | 33.70719 | 130.46292 | 18756 ft | 339 kts | 243° |
| 2026-05-05 23:14 | 33.69732 | 130.43961 | 18340 ft | 336 kts | 243° |
| 2026-05-05 23:14 | 33.68741 | 130.41620 | 17933 ft | 334 kts | 243° |
| 2026-05-05 23:15 | 33.67510 | 130.39329 | 17490 ft | 333 kts | 228° |
| 2026-05-05 23:15 | 33.65707 | 130.37714 | 17056 ft | 335 kts | 209° |
| 2026-05-05 23:15 | 33.63765 | 130.36577 | 16662 ft | 334 kts | 209° |
| 2026-05-05 23:15 | 33.61886 | 130.35429 | 16256 ft | 332 kts | 209° |
| 2026-05-05 23:16 | 33.59998 | 130.34276 | 15849 ft | 331 kts | 208° |
| 2026-05-05 23:16 | 33.58138 | 130.33138 | 15441 ft | 330 kts | 208° |
| 2026-05-05 23:16 | 33.56275 | 130.31993 | 15027 ft | 328 kts | 208° |
| 2026-05-05 23:16 | 33.54438 | 130.30867 | 14607 ft | 328 kts | 208° |
| 2026-05-05 23:17 | 33.52610 | 130.29747 | 14190 ft | 327 kts | 208° |
| 2026-05-05 23:17 | 33.50744 | 130.28601 | 13745 ft | 326 kts | 208° |
| 2026-05-05 23:17 | 33.48885 | 130.27464 | 13310 ft | 326 kts | 208° |
| 2026-05-05 23:17 | 33.47075 | 130.26353 | 12920 ft | 325 kts | 208° |
| 2026-05-05 23:18 | 33.45276 | 130.25253 | 12474 ft | 325 kts | 208° |
| 2026-05-05 23:18 | 33.43467 | 130.24146 | 12040 ft | 324 kts | 208° |
| 2026-05-05 23:18 | 33.41679 | 130.23051 | 11652 ft | 324 kts | 208° |
| 2026-05-05 23:18 | 33.39907 | 130.21968 | 11270 ft | 321 kts | 208° |
| 2026-05-05 23:19 | 33.38117 | 130.20874 | 11125 ft | 316 kts | 208° |
| 2026-05-05 23:19 | 33.36348 | 130.19794 | 10780 ft | 322 kts | 208° |
| 2026-05-05 23:19 | 33.34582 | 130.18715 | 10622 ft | 315 kts | 208° |
| 2026-05-05 23:19 | 33.32775 | 130.17854 | 10402 ft | 310 kts | 193° |
| 2026-05-05 23:20 | 33.30903 | 130.17671 | 10287 ft | 302 kts | 183° |
| 2026-05-05 23:20 | 33.29045 | 130.17566 | 10160 ft | 294 kts | 185° |
| 2026-05-05 23:20 | 33.27188 | 130.17445 | 10023 ft | 286 kts | 184° |
| 2026-05-05 23:20 | 33.25409 | 130.17333 | 9868 ft | 281 kts | 185° |
| 2026-05-05 23:21 | 33.23625 | 130.17218 | 9618 ft | 278 kts | 185° |
| 2026-05-05 23:21 | 33.21867 | 130.17105 | 9394 ft | 276 kts | 185° |
| 2026-05-05 23:21 | 33.20109 | 130.16994 | 9194 ft | 275 kts | 185° |
| 2026-05-05 23:21 | 33.18370 | 130.16882 | 8944 ft | 273 kts | 185° |
| 2026-05-05 23:22 | 33.16673 | 130.16774 | 8744 ft | 271 kts | 185° |
| 2026-05-05 23:22 | 33.14952 | 130.16666 | 8504 ft | 269 kts | 185° |
| 2026-05-05 23:22 | 33.13270 | 130.16557 | 8278 ft | 268 kts | 184° |
| 2026-05-05 23:22 | 33.11594 | 130.16452 | 8050 ft | 266 kts | 184° |
| 2026-05-05 23:23 | 33.09914 | 130.16345 | 7826 ft | 264 kts | 184° |
| 2026-05-05 23:23 | 33.08243 | 130.16237 | 7601 ft | 263 kts | 184° |
| 2026-05-05 23:23 | 33.06594 | 130.16135 | 7380 ft | 261 kts | 184° |
| 2026-05-05 23:23 | 33.04923 | 130.16028 | 7156 ft | 259 kts | 184° |
| 2026-05-05 23:24 | 33.03236 | 130.15921 | 6911 ft | 259 kts | 184° |
| 2026-05-05 23:24 | 33.01524 | 130.15811 | 6599 ft | 260 kts | 184° |
| 2026-05-05 23:24 | 32.99855 | 130.15706 | 6326 ft | 259 kts | 184° |
| 2026-05-05 23:24 | 32.98208 | 130.15602 | 6024 ft | 254 kts | 184° |
| 2026-05-05 23:25 | 32.96625 | 130.15501 | 5781 ft | 245 kts | 184° |
| 2026-05-05 23:25 | 32.95105 | 130.15405 | 5558 ft | 237 kts | 184° |
| 2026-05-05 23:25 | 32.93630 | 130.15312 | 5342 ft | 232 kts | 183° |
| 2026-05-05 23:25 | 32.92167 | 130.15219 | 5153 ft | 231 kts | 183° |
| 2026-05-05 23:26 | 32.90694 | 130.15124 | 5041 ft | 241 kts | 183° |
| 2026-05-05 23:26 | 32.89183 | 130.15031 | 4825 ft | 244 kts | 183° |
| 2026-05-05 23:26 | 32.87630 | 130.14934 | 4400 ft | 251 kts | 183° |
| 2026-05-05 23:26 | 32.86019 | 130.14833 | 4069 ft | 254 kts | 182° |
| 2026-05-05 23:27 | 32.84380 | 130.14731 | 3773 ft | 254 kts | 182° |
| 2026-05-05 23:27 | 32.82688 | 130.14625 | 3622 ft | 248 kts | 182° |
| 2026-05-05 23:27 | 32.81053 | 130.14487 | 3486 ft | 241 kts | 189° |
| 2026-05-05 23:27 | 32.79657 | 130.13754 | 3375 ft | 237 kts | 217° |
| 2026-05-05 23:28 | 32.78634 | 130.12453 | 3296 ft | 231 kts | 227° |
| 2026-05-05 23:28 | 32.77760 | 130.11087 | 3188 ft | 227 kts | 243° |
| 2026-05-05 23:28 | 32.77470 | 130.09415 | 3073 ft | 226 kts | 272° |
| 2026-05-05 23:28 | 32.77840 | 130.07787 | 2895 ft | 225 kts | 290° |
| 2026-05-05 23:29 | 32.78302 | 130.06230 | 2704 ft | 218 kts | 287° |
| 2026-05-05 23:29 | 32.78923 | 130.04833 | 2499 ft | 211 kts | 316° |
| 2026-05-05 23:29 | 32.79903 | 130.03844 | 2467 ft | 197 kts | 321° |
| 2026-05-05 23:29 | 32.80814 | 130.02887 | 2440 ft | 186 kts | 318° |
| 2026-05-05 23:30 | 32.81691 | 130.01949 | 2383 ft | 187 kts | 319° |
| 2026-05-05 23:30 | 32.82290 | 130.01312 | 2224 ft | 188 kts | 319° |
| 2026-05-05 23:30 | 32.83471 | 130.00060 | 1935 ft | 187 kts | 320° |
| 2026-05-05 23:30 | 32.84365 | 129.99115 | 1709 ft | 187 kts | 320° |
| 2026-05-05 23:31 | 32.85236 | 129.98190 | 1503 ft | 183 kts | 320° |
| 2026-05-05 23:31 | 32.86078 | 129.97299 | 1330 ft | 172 kts | 320° |
| 2026-05-05 23:31 | 32.86864 | 129.96463 | 1104 ft | 154 kts | 320° |
| 2026-05-05 23:31 | 32.87576 | 129.95712 | 865 ft | 143 kts | 320° |
| 2026-05-05 23:32 | 32.88245 | 129.94997 | 647 ft | 141 kts | 320° |
| 2026-05-05 23:32 | 32.88902 | 129.94298 | 493 ft | 138 kts | 320° |
| 2026-05-05 23:32 | 32.89549 | 129.93599 | 346 ft | 138 kts | 323° |
| 2026-05-05 23:32 | 32.90206 | 129.92926 | 186 ft | 137 kts | 321° |
| 2026-05-05 23:33 | 32.90872 | 129.92219 | 32 ft | 136 kts | 322° |
| 2026-05-05 23:33 | 32.91420 | 129.91643 | 15 ft | 71 kts | 318° |
| 2026-05-05 23:33 | 32.91744 | 129.91298 | 13 ft | 62 kts | 317° |
| 2026-05-05 23:33 | 32.91956 | 129.91110 | 15 ft | 30 kts | 13° |
| 2026-05-05 23:34 | 32.92001 | 129.91287 | 15 ft | 30 kts | 129° |
| 2026-05-05 23:34 | 32.91847 | 129.91461 | 15 ft | 35 kts | 136° |
| 2026-05-05 23:34 | 32.91677 | 129.91647 | 15 ft | 39 kts | 137° |
| 2026-05-05 23:34 | 32.91503 | 129.91836 | 15 ft | 23 kts | 137° |
| 2026-05-05 23:35 | 32.91395 | 129.91952 | 15 ft | 25 kts | 143° |
| 2026-05-05 23:35 | 32.91350 | 129.92030 | 16 ft | 12 kts | 63° |
| 2026-05-05 23:35 | 32.91407 | 129.92114 | 17 ft | 7 kts | 49° |
| 2026-05-05 23:35 | 32.91419 | 129.92129 | 18 ft | 0 kts | 49° |
| 2026-05-05 23:36 | 32.91428 | 129.92142 | 18 ft | 4 kts | 49° |
| 2026-05-05 23:36 | 32.91427 | 129.92140 | 18 ft | 3 kts | 49° |
| 2026-05-05 23:36 | 32.91419 | 129.92129 | 18 ft | 0 kts | 49° |
| 2026-05-05 23:36 | 32.91422 | 129.92134 | 18 ft | 0 kts | 49° |
| 2026-05-05 23:37 | 32.91419 | 129.92129 | 17 ft | 0 kts | 49° |
| 2026-05-05 23:37 | 32.91420 | 129.92131 | 17 ft | 0 kts | 49° |
| 2026-05-05 23:38 | 32.91420 | 129.92129 | 17 ft | 0 kts | 49° |